Rain radar  rain snow radar


Leuven Template:n sääsivut:

Template documentation
and downloads

And another site



Maanjäristykset viimeiseltä 7 päivältä

Maanjäristykset viimeisten 7 päivän suuruus 2.0 tai enemmän sisällä 15000 km
päivityksen aika = 21-04-2024 14:18

Järistyksen Near Suure Etäisyys Järistykseen Paikallinen aika Linkki
3 km S of Pāhala, Hawaii 2.1 01110511105 km 171369311221-04-2024 09:51 Kartta
41 km E of Chignik, Alaska 2.5 0069796979 km 171369300621-04-2024 09:50 Kartta
4 km WNW of Borrego Springs, CA 2.1 0090199019 km 171369178121-04-2024 09:29 Kartta
9 km E of Pāhala, Hawaii 2.1 01110111101 km 171369023721-04-2024 09:03 Kartta
11 km SE of Pāhala, Hawaii 2.0 01110811108 km 171368718221-04-2024 08:13 Kartta
12 km SSW of Arvin, CA 2.4 0088888888 km 171368619421-04-2024 07:56 Kartta
2 km S of Cromberg, CA 2.3 0084258425 km 171368537721-04-2024 07:42 Kartta
5 km SSE of Salinas, Puerto Rico 2.4 0084318431 km 171368464921-04-2024 07:30 Kartta
129 km WNW of False Pass, Alaska 4.2 0070277027 km 171368422921-04-2024 07:23 Kartta
61 km SE of Ugashik, Alaska 2.4 0068786878 km 171368314121-04-2024 07:05 Kartta
22 km WSW of Clear, Alaska 2.7 0061026102 km 171368244621-04-2024 06:54 Kartta
93 km SE of Atlasovo, Russia 4.3 0065016501 km 171368240821-04-2024 06:53 Kartta
107 km WNW of Höfn, Iceland 5.3 0022242224 km 171368144121-04-2024 06:37 Kartta
2 km NNW of Juncos, Puerto Rico 3.1 0083838383 km 171367941121-04-2024 06:03 Kartta
31 km NW of Willow, Alaska 2.1 0063496349 km 171367883721-04-2024 05:53 Kartta
101 km NE of Murghob, Tajikistan 4.1 0040994099 km 171367125021-04-2024 03:47 Kartta
172 km E of Kuril’sk, Russia 4.4 0071567156 km 171367078421-04-2024 03:39 Kartta
21 km NE of Hualien City, Taiwan 4.5 0079457945 km 171366883521-04-2024 03:07 Kartta
58 km WSW of Adak, Alaska 3.1 0072997299 km 171366823321-04-2024 02:57 Kartta
57 km S of Hualien City, Taiwan 5.1 0079997999 km 171366725321-04-2024 02:40 Kartta
209 km WSW of Pistol River, Oregon 2.7 0083588358 km 171366560221-04-2024 02:13 Kartta
10 km WSW of El Crucero, Nicaragua 4.3 01004310043 km 171366419121-04-2024 01:49 Kartta
17 km SSE of Waimea, Hawaii 2.3 01102511025 km 171366412721-04-2024 01:48 Kartta
30 km SSW of Cantwell, Alaska 2.2 0062156215 km 171366383421-04-2024 01:43 Kartta
11 km SSE of Maria Antonia, Puerto Rico 2.2 0084668466 km 171366339821-04-2024 01:36 Kartta
66 km WNW of Nanwalek, Alaska 2.0 0066146614 km 171366299421-04-2024 01:29 Kartta
24 km SW of Tanacross, Alaska 2.0 0061826182 km 171366290421-04-2024 01:28 Kartta
1 km NNW of Almanor, CA 2.0 0083968396 km 171366261321-04-2024 01:23 Kartta
104 km S of Koshima, Japan 4.3 0078867886 km 171365924821-04-2024 00:27 Kartta
21 km SSW of León, Nicaragua 4.2 01003910039 km 171365768521-04-2024 00:01 Kartta
33 km SE of Malaga, New Mexico 2.0 0087548754 km 171365704920-04-2024 23:50 Kartta
63 km SSW of Shungnak, Alaska 2.3 0058585858 km 171365611420-04-2024 23:35 Kartta
11 km ENE of Fox, Alaska 2.1 0060046004 km 171365455620-04-2024 23:09 Kartta
3 km WSW of Home Garden, CA 2.5 0087818781 km 171365059020-04-2024 22:03 Kartta
10 km S of Honaunau-Napoopoo, Hawaii 2.0 01108311083 km 171364892820-04-2024 21:35 Kartta
25 km NNW of Petersville, Alaska 3.3 0062656265 km 171364884420-04-2024 21:34 Kartta
278 km NNE of Lospalos, Timor Leste 4.6 01125911259 km 171364864720-04-2024 21:30 Kartta
248 km SSW of Barra de Navidad, Mexico 4.1 01035310353 km 171364812520-04-2024 21:22 Kartta
11 km NE of Pāhala, Hawaii 2.0 01109311093 km 171364782920-04-2024 21:17 Kartta
2 km SSW of Pāhala, Hawaii 2.3 01110411104 km 171364385520-04-2024 20:10 Kartta
41 km ESE of Mina, Nevada 2.3 0085268526 km 171364190320-04-2024 19:38 Kartta
21 km N of Chickaloon, Alaska 2.3 0063396339 km 171364045820-04-2024 19:14 Kartta
10 km NNE of Coso Junction, CA 2.4 0087558755 km 171364027520-04-2024 19:11 Kartta
188 km W of Bandon, Oregon 3.0 0081778177 km 171363820720-04-2024 18:36 Kartta
20 km ESE of Khowy, Iran 4.4 0028042804 km 171363611520-04-2024 18:01 Kartta
14 km SSE of Volcano, Hawaii 2.4 01108711087 km 171363259020-04-2024 17:03 Kartta
5 km SW of Coso Junction, CA 2.3 0087698769 km 171362954820-04-2024 16:12 Kartta
46 km N of Petersville, Alaska 2.2 0062416241 km 171362933420-04-2024 16:08 Kartta
43 km ENE of Pedro Bay, Alaska 2.4 0065756575 km 171362873020-04-2024 15:58 Kartta
62 km W of Happy Valley, Alaska 2.1 0065616561 km 171362800820-04-2024 15:46 Kartta
34 km NNE of Otra Banda, Dominican Republic 4.0 0084558455 km 171362716220-04-2024 15:32 Kartta
2 km SW of Indios, Puerto Rico 2.4 0084578457 km 171362510720-04-2024 14:58 Kartta
4 km SSE of Roff, Oklahoma 2.3 0082318231 km 171362298620-04-2024 14:23 Kartta
2 km NNE of Lázaro Cárdenas, Mexico 4.9 01000910009 km 171362215120-04-2024 14:09 Kartta
9 km NW of Prague, Oklahoma 2.1 0081328132 km 171361872920-04-2024 13:12 Kartta
140 km WSW of Nikolski, Alaska 3.6 0073107310 km 171361864620-04-2024 13:10 Kartta
59 km S of Whites City, New Mexico 2.4 0088088808 km 171361637720-04-2024 12:32 Kartta
23 km S of Westbrook, Texas 2.6 0086408640 km 171361566420-04-2024 12:21 Kartta
37 km NNW of Toyah, Texas 2.0 0088018801 km 171361376820-04-2024 11:49 Kartta
38 km NNW of Toyah, Texas 2.7 0088018801 km 171361364920-04-2024 11:47 Kartta
12 km W of Akutan, Alaska 2.0 0071717171 km 171361220020-04-2024 11:23 Kartta
10 km SSE of Volcano, Hawaii 2.3 01108511085 km 171361163720-04-2024 11:13 Kartta
37 km NNW of Aleneva, Alaska 2.3 0067486748 km 171361129620-04-2024 11:08 Kartta
3 km SSW of Pāhala, Hawaii 2.5 01110411104 km 171361070420-04-2024 10:58 Kartta
26 km SSW of Coyanosa, Texas 2.2 0088318831 km 171360768020-04-2024 10:08 Kartta
20 km ESE of Jal, New Mexico 2.9 0087178717 km 171360660420-04-2024 09:50 Kartta
20 km ENE of Falls City, Texas 2.5 0088298829 km 171360649820-04-2024 09:48 Kartta
36 km N of Isabela, Puerto Rico 3.3 0083858385 km 171360622420-04-2024 09:43 Kartta
155 km SSW of Corinto, Nicaragua 4.3 01018410184 km 171360593420-04-2024 09:38 Kartta
27 km SE of Skwentna, Alaska 3.0 0063676367 km 171360404420-04-2024 09:07 Kartta
69 km ENE of Loreto, Mexico 4.4 0095899589 km 171360297320-04-2024 08:49 Kartta
30 km SE of Mina, Nevada 2.9 0085338533 km 171360224720-04-2024 08:37 Kartta
7 km NNW of Point MacKenzie, Alaska 2.1 0064056405 km 171360134320-04-2024 08:22 Kartta
12 km ESE of Redway, CA 2.4 0084668466 km 171359986520-04-2024 07:57 Kartta
13 km W of Anchor Point, Alaska 3.2 0065946594 km 171359879720-04-2024 07:39 Kartta
7 km ESE of Marston, Missouri 2.0 0077507750 km 171359609320-04-2024 06:54 Kartta
63 km WSW of Adak, Alaska 3.8 0073147314 km 171359482720-04-2024 06:33 Kartta
7 km S of Orocovis, Puerto Rico 2.3 0084168416 km 171359267120-04-2024 05:57 Kartta
69 km ENE of Loreto, Mexico 4.4 0095889588 km 171358957420-04-2024 05:06 Kartta
140 km SSE of Amahai, Indonesia 4.3 01112611126 km 171358795720-04-2024 04:39 Kartta
23 km SW of Ashkāsham, Afghanistan 4.1 0041214121 km 171358757220-04-2024 04:32 Kartta
4 km S of Richland, Washington 2.8 0077107710 km 171358673720-04-2024 04:18 Kartta
59 km S of Silver Peak, Nevada 2.0 0086308630 km 171358477520-04-2024 03:46 Kartta
40 km WSW of Rosarito, B.C., MX 2.3 0091649164 km 171358470420-04-2024 03:45 Kartta
207 km NNW of Saipan, Northern Mariana Islands 5.0 0097929792 km 171358454420-04-2024 03:42 Kartta
60 km E of Big Pine, California 2.3 0086328632 km 171358094820-04-2024 02:42 Kartta
15 km WNW of Villa Basilio Nievas, Argentina 4.5 01332113321 km 171358063620-04-2024 02:37 Kartta
2 km SE of Yauco, Puerto Rico 2.3 0084528452 km 171358005120-04-2024 02:27 Kartta
48 km NE of Pedro Bay, Alaska 2.5 0065636563 km 171357977720-04-2024 02:22 Kartta
64 km ENE of Kinablangan, Philippines 4.9 0097969796 km 171357973120-04-2024 02:22 Kartta
6 km WSW of Gladstone, New Jersey 2.1 0066956695 km 171357879520-04-2024 02:06 Kartta
69 km N of Brenas, Puerto Rico 3.0 0083278327 km 171357816620-04-2024 01:56 Kartta
western Xizang 4.6 0049324932 km 171357744420-04-2024 01:44 Kartta
12 km WNW of Akutan, Alaska 3.4 0071667166 km 171357737920-04-2024 01:42 Kartta
52 km SSE of Quepos, Costa Rica 4.3 01022310223 km 171357478820-04-2024 00:59 Kartta
160 km ESE of Sarangani, Philippines 4.5 01007210072 km 171357353720-04-2024 00:38 Kartta
40 km NE of Hualien City, Taiwan 4.4 0079447944 km 171357331120-04-2024 00:35 Kartta
12 km NE of Pāhala, Hawaii 2.2 01109311093 km 171357295620-04-2024 00:29 Kartta
32 km WNW of Anchor Point, Alaska 2.2 0065756575 km 171357061819-04-2024 23:50 Kartta
9 km SSE of Maria Antonia, Puerto Rico 2.4 0084658465 km 171356862919-04-2024 23:17 Kartta
8 km WNW of San Francisco Zoo, CA 2.1 0086918691 km 171356449019-04-2024 22:08 Kartta
49 km E of Nemuro, Japan 4.8 0071967196 km 171356445019-04-2024 22:07 Kartta
19 km NNE of Karnes City, Texas 2.5 0088318831 km 171356186519-04-2024 21:24 Kartta
7 km E of Angwin, CA 2.3 0085998599 km 171356046119-04-2024 21:01 Kartta
91 km S of Shikotan, Russia 4.8 0072547254 km 171356037919-04-2024 20:59 Kartta
145 km S of Pundong, Indonesia 4.5 01056110561 km 171355910119-04-2024 20:38 Kartta
1 km NE of Lincoln Park, Pennsylvania 2.4 0067886788 km 171355897919-04-2024 20:36 Kartta
south of Panama 4.6 01058210582 km 171355834119-04-2024 20:25 Kartta
8 km NE of Sprague, Washington 2.2 0075627562 km 171355725819-04-2024 20:07 Kartta
35 km ENE of Larsen Bay, Alaska 3.1 0068246824 km 171355704119-04-2024 20:04 Kartta
11 km SSE of Maria Antonia, Puerto Rico 2.1 0084668466 km 171355657519-04-2024 19:56 Kartta
8 km ENE of Dixon, CA 2.0 0085978597 km 171355636419-04-2024 19:52 Kartta
8 km NW of Prague, Oklahoma 2.0 0081328132 km 171355611519-04-2024 19:48 Kartta
111 km W of Pariaman, Indonesia 4.5 0091449144 km 171355487119-04-2024 19:27 Kartta
55 km SSE of Perryville, Alaska 2.2 0070637063 km 171355478819-04-2024 19:26 Kartta
14 km WNW of Progreso, B.C., MX 2.6 0090669066 km 171355314519-04-2024 18:59 Kartta
46 km SW of Lowell Point, Alaska 2.0 0065896589 km 171355310019-04-2024 18:58 Kartta
59 km W of Adak, Alaska 2.9 0072977297 km 171355225919-04-2024 18:44 Kartta
59 km W of Adak, Alaska 2.4 0072977297 km 171355220219-04-2024 18:43 Kartta
60 km WSW of Adak, Alaska 2.3 0073027302 km 171355219419-04-2024 18:43 Kartta
59 km WSW of Adak, Alaska 2.2 0073017301 km 171355096019-04-2024 18:22 Kartta
5 km ENE of La Parguera, Puerto Rico 2.3 0084638463 km 171355093519-04-2024 18:22 Kartta
58 km WSW of Adak, Alaska 2.1 0073007300 km 171355091919-04-2024 18:21 Kartta
61 km WSW of Adak, Alaska 3.8 0073127312 km 171355065819-04-2024 18:17 Kartta
77 km ESE of Selawik, Alaska 2.7 0058655865 km 171354857319-04-2024 17:42 Kartta
7 km ENE of Vallejo, CA 2.1 0086428642 km 171354784219-04-2024 17:30 Kartta
59 km WSW of Adak, Alaska 2.0 0073037303 km 171354683119-04-2024 17:13 Kartta
9 km N of Indio, CA 2.1 0089568956 km 171354657919-04-2024 17:09 Kartta
32 km SSE of Hope, New Mexico 2.8 0087298729 km 171354625419-04-2024 17:04 Kartta
142 km WSW of Nikolski, Alaska 4.0 0073077307 km 171354394519-04-2024 16:25 Kartta
59 km WSW of Adak, Alaska 2.6 0073037303 km 171354361419-04-2024 16:20 Kartta
74 km ESE of Cantwell, Alaska 2.1 0062156215 km 171354343519-04-2024 16:17 Kartta
6 km NNW of Point MacKenzie, Alaska 2.0 0064076407 km 171354304119-04-2024 16:10 Kartta
58 km WSW of Adak, Alaska 3.6 0072997299 km 171354272519-04-2024 16:05 Kartta
55 km NNW of Petersville, Alaska 2.7 0062396239 km 171354078219-04-2024 15:33 Kartta
13 km NNW of Mentone, Texas 2.8 0087698769 km 171354047719-04-2024 15:27 Kartta
19 km NNE of Karnes City, Texas 2.5 0088318831 km 171353971819-04-2024 15:15 Kartta
14 km SW of Indian Springs, Nevada 2.0 0086618661 km 171353867519-04-2024 14:57 Kartta
41 km NE of Hualien City, Taiwan 4.1 0079317931 km 171353675019-04-2024 14:25 Kartta
59 km WSW of Adak, Alaska 2.2 0073007300 km 171353598319-04-2024 14:13 Kartta
near the north coast of Greenland 4.5 0027872787 km 171353529719-04-2024 14:01 Kartta
59 km W of Adak, Alaska 2.0 0072987298 km 171353400419-04-2024 13:40 Kartta
60 km WSW of Adak, Alaska 2.5 0073007300 km 171353361519-04-2024 13:33 Kartta
59 km WSW of Adak, Alaska 2.0 0073007300 km 171353281119-04-2024 13:20 Kartta
60 km WSW of Adak, Alaska 2.5 0072987298 km 171353134119-04-2024 12:55 Kartta
67 km WSW of Adak, Alaska 4.1 0073097309 km 171353123519-04-2024 12:53 Kartta
Bonin Islands, Japan region 4.4 0084768476 km 171353100819-04-2024 12:50 Kartta
50 km SW of Buckland, Alaska 4.0 0059235923 km 171353050619-04-2024 12:41 Kartta
59 km WSW of Adak, Alaska 2.3 0073017301 km 171353041419-04-2024 12:40 Kartta
29 km SSE of Mina, Nevada 2.4 0085418541 km 171352842119-04-2024 12:07 Kartta
28 km SSE of Mina, Nevada 2.9 0085408540 km 171352834519-04-2024 12:05 Kartta
central Mid-Atlantic Ridge 5.2 0081518151 km 171352444019-04-2024 11:00 Kartta
20 km NE of Olancha, CA 2.1 0087238723 km 171352184919-04-2024 10:17 Kartta
85 km N of Karluk, Alaska 2.4 0067516751 km 171351904319-04-2024 09:30 Kartta
55 km S of Whites City, New Mexico 2.1 0088098809 km 171351885719-04-2024 09:27 Kartta
55 km S of Whites City, New Mexico 2.9 0088098809 km 171351859319-04-2024 09:23 Kartta
southeast of the Loyalty Islands 5.7 01486714867 km 171351828119-04-2024 09:18 Kartta
12 km SW of Volcano, Hawaii 2.0 01108511085 km 171351667519-04-2024 08:51 Kartta
2 km WNW of Indios, Puerto Rico 2.2 0084548454 km 171351454319-04-2024 08:15 Kartta
10 km ENE of Néon Karlovásion, Greece 4.3 0025682568 km 171351374019-04-2024 08:02 Kartta
7 km SSW of Guánica, Puerto Rico 2.2 0084688468 km 171351338519-04-2024 07:56 Kartta
4 km WSW of Guánica, Puerto Rico 2.5 0084658465 km 171351330819-04-2024 07:55 Kartta
1 km NW of Pāhala, Hawaii 2.4 01110011100 km 171351319219-04-2024 07:53 Kartta
4 km S of Pāhala, Hawaii 2.2 01110511105 km 171351230419-04-2024 07:38 Kartta
16 km WNW of Bryson City, North Carolina 2.1 0075947594 km 171351222519-04-2024 07:37 Kartta
156 km SE of Chignik, Alaska 4.6 0071007100 km 171351165319-04-2024 07:27 Kartta
10 km NNE of Coso Junction, CA 2.1 0087558755 km 171351152319-04-2024 07:25 Kartta
0 km NNW of Palomas, Puerto Rico 2.3 0084558455 km 171350820419-04-2024 06:30 Kartta
6 km NNW of Manado, Indonesia 4.2 01029310293 km 171350652419-04-2024 06:02 Kartta
12 km W of La Porte, CA 2.1 0084558455 km 171350568719-04-2024 05:48 Kartta
87 km W of Kuqa, China 4.6 0042104210 km 171350447619-04-2024 05:27 Kartta
11 km NE of Pāhala, Hawaii 2.3 01109311093 km 171350387119-04-2024 05:17 Kartta
11 km SSW of Bodfish, CA 3.2 0088378837 km 171350230219-04-2024 04:51 Kartta
79 km NE of Loreto, Mexico 4.2 0095579557 km 171350102819-04-2024 04:30 Kartta
South Sandwich Islands region 4.6 01405414054 km 171350053219-04-2024 04:22 Kartta
4 km SSW of Pāhala, Hawaii 2.2 01110511105 km 171349924419-04-2024 04:00 Kartta
4 km S of Pāhala, Hawaii 2.0 01110511105 km 171349907719-04-2024 03:57 Kartta
51 km S of Whites City, New Mexico 2.6 0088008800 km 171349818019-04-2024 03:43 Kartta
61 km WSW of Adak, Alaska 2.5 0073087308 km 171349389319-04-2024 02:31 Kartta
59 km WSW of Adak, Alaska 2.9 0073027302 km 171349319819-04-2024 02:19 Kartta
59 km WSW of Adak, Alaska 2.9 0073067306 km 171349301819-04-2024 02:16 Kartta
18 km S of Susitna, Alaska 2.1 0064126412 km 171349277619-04-2024 02:12 Kartta
126 km NW of Yakutat, Alaska 2.0 0065036503 km 171349214519-04-2024 02:02 Kartta
60 km WSW of Adak, Alaska 3.0 0073067306 km 171349159419-04-2024 01:53 Kartta
7 km NW of Woodlawn, Illinois 2.2 0075467546 km 171348875219-04-2024 01:05 Kartta
5 km S of Pāhala, Hawaii 2.1 01110711107 km 171348830719-04-2024 00:58 Kartta
2 km ENE of Fujioka, Japan 4.5 0076317631 km 171348680419-04-2024 00:33 Kartta
70 km NNE of Petersville, Alaska 2.4 0062196219 km 171348279618-04-2024 23:26 Kartta
21 km SW of Sabzevar, Iran 4.4 0035123512 km 171348177018-04-2024 23:09 Kartta
19 km SW of Gorgān, Iran 4.3 0033163316 km 171347952118-04-2024 22:32 Kartta
13 km N of Hollister, CA 2.0 0087508750 km 171347868818-04-2024 22:18 Kartta
11 km SSW of Bodfish, CA 2.2 0088388838 km 171347523318-04-2024 21:20 Kartta
21 km S of Petersville, Alaska 3.3 0063096309 km 171347517918-04-2024 21:19 Kartta
6 km S of Salinas, Puerto Rico 2.4 0084338433 km 171347517318-04-2024 21:19 Kartta
10 km NW of Pinnacles, CA 2.5 0087878787 km 171347380218-04-2024 20:56 Kartta
84 km N of Tocopilla, Chile 4.5 01244612446 km 171347333718-04-2024 20:48 Kartta
11 km S of Bodfish, CA 2.4 0088388838 km 171347246618-04-2024 20:34 Kartta
12 km NE of Susitna North, Alaska 3.6 0063156315 km 171347230818-04-2024 20:31 Kartta
11 km SSW of Bodfish, CA 2.1 0088388838 km 171347130918-04-2024 20:15 Kartta
10 km NE of Pāhala, Hawaii 2.2 01109311093 km 171347032718-04-2024 19:58 Kartta
4 km NNW of Sulusaray, Turkey 4.4 0024112411 km 171346870418-04-2024 19:31 Kartta
11 km S of Bodfish, CA 4.3 0088378837 km 171346795818-04-2024 19:19 Kartta
179 km NNE of Colonia, Micronesia 4.8 01007210072 km 171346776618-04-2024 19:16 Kartta
27 km SSW of Ocotillo Wells, CA 2.0 0090529052 km 171346663518-04-2024 18:57 Kartta
129 km NE of Saipan, Northern Mariana Islands 4.6 0099709970 km 171346590018-04-2024 18:45 Kartta
4 km NNW of Sulusaray, Turkey 4.2 0024112411 km 171346580918-04-2024 18:43 Kartta
western Xizang 4.4 0049354935 km 171346277718-04-2024 17:52 Kartta
western Xizang 5.1 0049324932 km 171346200218-04-2024 17:40 Kartta
55 km NW of Toyah, Texas 2.2 0088118811 km 171346137818-04-2024 17:29 Kartta
52 km WSW of Acajutla, El Salvador 4.3 01008310083 km 171346068318-04-2024 17:18 Kartta
25 km SE of Boca de Yuma, Dominican Republic 3.9 0085138513 km 171345769818-04-2024 16:28 Kartta
32 km SSE of Perryville, Alaska 2.3 0070417041 km 171345721518-04-2024 16:20 Kartta
49 km E of Loreto, Mexico 4.4 0096129612 km 171345682218-04-2024 16:13 Kartta
37 km ENE of McKinney Acres, Texas 2.6 0086538653 km 171345674418-04-2024 16:12 Kartta
50 km SE of Denali National Park, Alaska 2.1 0062006200 km 171345656918-04-2024 16:09 Kartta
7 km SW of Volcano, Hawaii 2.1 01108011080 km 171345498918-04-2024 15:43 Kartta
37 km S of Padam, India 4.4 0047114711 km 171345375718-04-2024 15:22 Kartta
10 km S of Bondurant, Wyoming 2.6 0078157815 km 171345333118-04-2024 15:15 Kartta
87 km ENE of Loreto, Mexico 5.6 0095859585 km 171345315818-04-2024 15:12 Kartta
9 km W of Sulusaray, Turkey 5.6 0024122412 km 171345308518-04-2024 15:11 Kartta
134 km ENE of Saipan, Northern Mariana Islands 4.7 0099879987 km 171344910818-04-2024 14:05 Kartta
3 km ENE of La Parguera, Puerto Rico 2.4 0084658465 km 171344838118-04-2024 13:53 Kartta
83 km ESE of Yakutat, Alaska 2.3 0065956595 km 171344722718-04-2024 13:33 Kartta
6 km NW of Belden, CA 2.6 0084188418 km 171344648518-04-2024 13:21 Kartta
11 km NE of Pāhala, Hawaii 2.1 01109411094 km 171344462918-04-2024 12:50 Kartta
11 km ESE of Pāhala, Hawaii 2.0 01110711107 km 171344425918-04-2024 12:44 Kartta
101 km SW of Manuel Ávila Camacho (Ponte Duro), Mexico 4.4 01009310093 km 171344218118-04-2024 12:09 Kartta
2 km E of La Parguera, Puerto Rico 3.2 0084678467 km 171344190518-04-2024 12:05 Kartta
3 km SSW of Pāhala, Hawaii 2.2 01110411104 km 171344094018-04-2024 11:49 Kartta
1 km E of Prattville, CA 2.7 0083968396 km 171343970718-04-2024 11:28 Kartta
11 km ENE of Pāhala, Hawaii 2.1 01109511095 km 171343926518-04-2024 11:21 Kartta
0 km W of Pāhala, Hawaii 2.0 01110111101 km 171343629118-04-2024 10:31 Kartta
57 km E of Pedro Bay, Alaska 2.5 0065906590 km 171343284118-04-2024 09:34 Kartta
69 km W of Petrolia, CA 3.4 0084638463 km 171343280118-04-2024 09:33 Kartta
Volcano Islands, Japan region 5.4 0091259125 km 171343255618-04-2024 09:29 Kartta
5 km SSW of Indios, Puerto Rico 2.4 0084608460 km 171343047018-04-2024 08:54 Kartta
49 km WNW of Beluga, Alaska 2.0 0064166416 km 171342987918-04-2024 08:44 Kartta
203 km W of Port McNeill, Canada 4.1 0074687468 km 171342961218-04-2024 08:40 Kartta
southern Mid-Atlantic Ridge 5.2 01226512265 km 171342877318-04-2024 08:26 Kartta
26 km WNW of Willow, Alaska 2.2 0063566356 km 171342816218-04-2024 08:16 Kartta
100 km SSW of Calama, Chile 4.5 01257512575 km 171342682918-04-2024 07:53 Kartta
83 km ENE of Loreto, Mexico 5.2 0095819581 km 171342597918-04-2024 07:39 Kartta
207 km WSW of Port McNeill, Canada 4.3 0074837483 km 171342250518-04-2024 06:41 Kartta
199 km W of Port McNeill, Canada 4.9 0074707470 km 171342036518-04-2024 06:06 Kartta
8 km NW of Prague, Oklahoma 2.1 0081328132 km 171341904418-04-2024 05:44 Kartta
43 km W of Happy Valley, Alaska 2.0 0065706570 km 171341587618-04-2024 04:51 Kartta
66 km SE of Loreto, Mexico 4.3 0096529652 km 171341416118-04-2024 04:22 Kartta
62 km S of Whites City, New Mexico 2.4 0088178817 km 171341207518-04-2024 03:47 Kartta
82 km ESE of Yakutat, Alaska 2.8 0065906590 km 171340886418-04-2024 02:54 Kartta
27 km N of Trinidad, CA 2.2 0083438343 km 171340776718-04-2024 02:36 Kartta
21 km ENE of Falls City, Texas 2.0 0088298829 km 171340745918-04-2024 02:30 Kartta
20 km ENE of Falls City, Texas 2.6 0088298829 km 171340576118-04-2024 02:02 Kartta
16 km NNW of Ninilchik, Alaska 2.2 0065466546 km 171340477318-04-2024 01:46 Kartta
118 km WNW of Aykol, China 4.3 0040864086 km 171339981618-04-2024 00:23 Kartta
10 km WNW of Sulusaray, Turkey 4.1 0024112411 km 171339694717-04-2024 23:35 Kartta
9 km NE of Pāhala, Hawaii 2.2 01109411094 km 171339410617-04-2024 22:48 Kartta
10 km W of Sulusaray, Turkey 4.6 0024132413 km 171339162017-04-2024 22:07 Kartta
58 km E of Loreto, Mexico 4.4 0096069606 km 171339125917-04-2024 22:00 Kartta
16 km SSE of Ponce, Puerto Rico 2.4 0084548454 km 171339112117-04-2024 21:58 Kartta
18 km ESE of Naalehu, Hawaii 2.4 01112411124 km 171339106317-04-2024 21:57 Kartta
203 km WSW of Port McNeill, Canada 4.9 0074777477 km 171339037517-04-2024 21:46 Kartta
21 km ESE of Cárdenas, Nicaragua 5.5 01007010070 km 171338891417-04-2024 21:21 Kartta
4 km NE of Curití, Colombia 4.4 0098869886 km 171338700117-04-2024 20:50 Kartta
5 km W of Dell, Arkansas 2.8 0078377837 km 171338658617-04-2024 20:43 Kartta
17 km ESE of Naalehu, Hawaii 2.4 01112411124 km 171338453617-04-2024 20:08 Kartta
18 km ESE of Naalehu, Hawaii 2.0 01112311123 km 171338319017-04-2024 19:46 Kartta
72 km W of Petrolia, CA 3.0 0084598459 km 171337333417-04-2024 17:02 Kartta
13 km S of Rancho Palos Verdes, CA 2.6 0090349034 km 171336938117-04-2024 15:56 Kartta
2 km SSE of Long Beach, CA 2.6 0090109010 km 171336935817-04-2024 15:55 Kartta
229 km E of Levuka, Fiji 4.3 01481414814 km 171336813117-04-2024 15:35 Kartta
8 km WSW of Kenwood, CA 2.5 0086268626 km 171336809517-04-2024 15:34 Kartta
6 km SW of Guánica, Puerto Rico 2.0 0084688468 km 171336416217-04-2024 14:29 Kartta
17 km WSW of Uwajima, Japan 6.3 0076037603 km 171336328517-04-2024 14:14 Kartta
55 km S of Whites City, New Mexico 2.1 0088088808 km 171336200017-04-2024 13:53 Kartta
77 km ENE of Loreto, Mexico 4.7 0095859585 km 171336196617-04-2024 13:52 Kartta
4 km SSW of Potala Pastillo, Puerto Rico 2.2 0084428442 km 171336075917-04-2024 13:32 Kartta
4 km SSW of Potala Pastillo, Puerto Rico 3.1 0084428442 km 171335974017-04-2024 13:15 Kartta
western Xizang 4.9 0049304930 km 171335651617-04-2024 12:21 Kartta
4 km SSE of Magas Arriba, Puerto Rico 2.4 0084528452 km 171335549717-04-2024 12:04 Kartta
6 km NNW of Smiths Ferry, Idaho 2.0 0078357835 km 171335515817-04-2024 11:59 Kartta
78 km ENE of Loreto, Mexico 4.9 0095889588 km 171335508717-04-2024 11:58 Kartta
40 km WNW of Skwentna, Alaska 2.1 0063266326 km 171335465517-04-2024 11:50 Kartta
0 km ENE of Pāhala, Hawaii 2.0 01110111101 km 171335203417-04-2024 11:07 Kartta
7 km WSW of Fuig, Puerto Rico 2.5 0084668466 km 171335203117-04-2024 11:07 Kartta
59 km WSW of Adak, Alaska 2.0 0073017301 km 171335108417-04-2024 10:51 Kartta
60 km WSW of Adak, Alaska 2.8 0073017301 km 171335064317-04-2024 10:44 Kartta
58 km S of Whites City, New Mexico 2.0 0088138813 km 171335054517-04-2024 10:42 Kartta
59 km WSW of Adak, Alaska 2.7 0073027302 km 171335044217-04-2024 10:40 Kartta
92 km WNW of Yakutat, Alaska 2.4 0065266526 km 171334980817-04-2024 10:30 Kartta
16 km SE of Hualien City, Taiwan 5.0 0079637963 km 171334543017-04-2024 09:17 Kartta
117 km N of Paciran, Indonesia 4.6 01033610336 km 171334170617-04-2024 08:15 Kartta
6 km W of Mayagüez, Puerto Rico 2.9 0084558455 km 171334025417-04-2024 07:50 Kartta
33 km NNE of Herlong, California 2.0 0083478347 km 171334021617-04-2024 07:50 Kartta
103 km N of Culebra, Puerto Rico 3.5 0082538253 km 171333972417-04-2024 07:42 Kartta
18 km W of Isla Vista, CA 2.0 0089898989 km 171333885917-04-2024 07:27 Kartta
11 km E of Pāhala, Hawaii 2.3 01110311103 km 171333847617-04-2024 07:21 Kartta
3 km S of Pāhala, Hawaii 2.2 01110511105 km 171333809717-04-2024 07:14 Kartta
24 km SW of Hiko, Nevada 2.1 0085488548 km 171333571517-04-2024 06:35 Kartta
25 km SSE of Valdez, Alaska 2.2 0064486448 km 171333552417-04-2024 06:32 Kartta
68 km ESE of Denali National Park, Alaska 2.0 0062056205 km 171333105117-04-2024 05:17 Kartta
59 km E of Loreto, Mexico 4.4 0096129612 km 171333076817-04-2024 05:12 Kartta
12 km E of Pāhala, Hawaii 2.4 01110211102 km 171332931817-04-2024 04:48 Kartta
34 km NNW of Kuqa, China 4.9 0042384238 km 171332775317-04-2024 04:22 Kartta
49 km ENE of Susitna North, Alaska 2.2 0063036303 km 171332712917-04-2024 04:12 Kartta
57 km S of Bintuni, Indonesia 4.6 01115611156 km 171332616017-04-2024 03:56 Kartta
2 km WSW of Indios, Puerto Rico 2.3 0084568456 km 171332382617-04-2024 03:17 Kartta
62 km SSW of Whites City, New Mexico 2.4 0088188818 km 171332060317-04-2024 02:23 Kartta
120 km WSW of Nikolski, Alaska 4.3 0073177317 km 171331850717-04-2024 01:48 Kartta
90 km E of Loreto, Mexico 4.9 0095989598 km 171331831417-04-2024 01:45 Kartta
20 km ENE of Falls City, Texas 2.2 0088308830 km 171331801717-04-2024 01:40 Kartta
10 km NNE of Coso Junction, CA 2.2 0087548754 km 171331690117-04-2024 01:21 Kartta
20 km SSW of Nixon, Texas 2.0 0088268826 km 171331431817-04-2024 00:38 Kartta
20 km SSW of Nixon, Texas 2.0 0088278827 km 171331325117-04-2024 00:20 Kartta
9 km NE of Pāhala, Hawaii 2.3 01109511095 km 171331275717-04-2024 00:12 Kartta
21 km SSW of Nixon, Texas 3.2 0088288828 km 171331266017-04-2024 00:11 Kartta
88 km ESE of Loreto, Mexico 4.4 0096369636 km 171331141516-04-2024 23:50 Kartta
2 km SSE of Mentone, CA 2.0 0089558955 km 171331053416-04-2024 23:35 Kartta
6 km S of Brawley, CA 2.1 0090319031 km 171330902516-04-2024 23:10 Kartta
40 km SE of Port Blair, India 5.2 0076317631 km 171330848316-04-2024 23:01 Kartta
15 km SE of Pāhala, Hawaii 2.4 01111011110 km 171330774716-04-2024 22:49 Kartta
72 km WNW of San Antonio de los Cobres, Argentina 4.5 01252912529 km 171330304316-04-2024 21:30 Kartta
19 km NNW of Runge, Texas 2.1 0088318831 km 171330301716-04-2024 21:30 Kartta
52 km NW of Toyah, Texas 2.7 0088038803 km 171330279916-04-2024 21:26 Kartta
10 km NE of Coso Junction, CA 2.0 0087548754 km 171330242316-04-2024 21:20 Kartta
14 km N of Sincik, Turkey 4.3 0026632663 km 171330179016-04-2024 21:09 Kartta
91 km ESE of Ugashik, Alaska 2.5 0068756875 km 171330166916-04-2024 21:07 Kartta
127 km NNW of Fannūj, Iran 4.3 0044234423 km 171330118916-04-2024 20:59 Kartta
11 km ENE of La Romana, Dominican Republic 3.8 0085168516 km 171330100616-04-2024 20:56 Kartta
178 km S of Unalaska, Alaska 4.1 0073727372 km 171329958416-04-2024 20:33 Kartta
56 km ENE of Pedro Bay, Alaska 2.2 0065736573 km 171329906816-04-2024 20:24 Kartta
Bonin Islands, Japan region 4.8 0087308730 km 171329875616-04-2024 20:19 Kartta
49 km WNW of Ninilchik, Alaska 2.3 0065486548 km 171329844416-04-2024 20:14 Kartta
76 km SE of Denali National Park, Alaska 2.4 0062136213 km 171329809616-04-2024 20:08 Kartta
16 km ENE of Hawaiian Paradise Park, Hawaii 2.3 01105011050 km 171329785216-04-2024 20:04 Kartta
14 km SE of Nueva Concepción, Guatemala 4.4 01005710057 km 171329619316-04-2024 19:36 Kartta
22 km ENE of Hualien City, Taiwan 4.4 0079497949 km 171329398916-04-2024 18:59 Kartta
10 km NE of Coso Junction, CA 2.2 0087558755 km 171329368116-04-2024 18:54 Kartta
40 km NNE of Valdez, Alaska 2.0 0063926392 km 171329224016-04-2024 18:30 Kartta
11 km WNW of Yamada, Japan 4.6 0074047404 km 171329169016-04-2024 18:21 Kartta
1 km SW of Palmarejo, Puerto Rico 2.0 0084658465 km 171328943416-04-2024 17:43 Kartta
10 km NE of Coso Junction, CA 3.4 0087558755 km 171328939116-04-2024 17:43 Kartta
39 km W of Salamatof, Alaska 2.0 0065026502 km 171328807416-04-2024 17:21 Kartta
10 km SW of Chuathbaluk, Alaska 2.8 0063916391 km 171328697816-04-2024 17:02 Kartta
79 km W of Ferndale, CA 2.9 0084368436 km 171328577016-04-2024 16:42 Kartta
5 km SW of Volcano, Hawaii 2.5 01107911079 km 171328374316-04-2024 16:09 Kartta
9 km NE of Coso Junction, CA 2.0 0087558755 km 171328369416-04-2024 16:08 Kartta
18 km ESE of Union, Philippines 5.0 0095739573 km 171328357516-04-2024 16:06 Kartta
10 km NNE of Coso Junction, CA 2.0 0087558755 km 171328134816-04-2024 15:29 Kartta
10 km NNE of Coso Junction, CA 3.2 0087558755 km 171328114016-04-2024 15:25 Kartta
10 km NE of Coso Junction, CA 2.5 0087548754 km 171328105516-04-2024 15:24 Kartta
9 km NNE of Coso Junction, CA 3.9 0087558755 km 171328100616-04-2024 15:23 Kartta
10 km NNE of Coso Junction, CA 3.4 0087558755 km 171328098316-04-2024 15:23 Kartta
0 km SSW of View Park-Windsor Hills, CA 2.8 0089938993 km 171328075016-04-2024 15:19 Kartta
86 km ESE of Inarajan Village, Guam 5.4 01021410214 km 171327953616-04-2024 14:58 Kartta
5 km SW of Pāhala, Hawaii 2.3 01110511105 km 171327858716-04-2024 14:43 Kartta
7 km SSW of Calimesa, CA 2.0 0089678967 km 171327097216-04-2024 12:36 Kartta
12 km ESE of Pāhala, Hawaii 2.0 01110711107 km 171326950016-04-2024 12:11 Kartta
135 km SSE of Sand Point, Alaska 3.1 0071987198 km 171326922616-04-2024 12:07 Kartta
0 km SW of Pāhala, Hawaii 2.2 01110111101 km 171326504516-04-2024 10:57 Kartta
43 km SSW of Ugashik, Alaska 3.0 0068796879 km 171326467316-04-2024 10:51 Kartta
133 km ESE of Ust’-Kamchatsk Staryy, Russia 5.0 0065096509 km 171326384116-04-2024 10:37 Kartta
142 km ESE of Ust’-Kamchatsk Staryy, Russia 4.9 0065146514 km 171326383116-04-2024 10:37 Kartta
20 km ESE of Denali National Park, Alaska 2.0 0061786178 km 171326323616-04-2024 10:27 Kartta
17 km W of Bryson City, North Carolina 2.0 0075977597 km 171326100616-04-2024 09:50 Kartta
22 km SSW of Gustine, CA 2.0 0087318731 km 171325634816-04-2024 08:32 Kartta
93 km E of Port-Olry, Vanuatu 5.0 01403114031 km 171325420516-04-2024 07:56 Kartta
11 km ENE of Pine Mountain Club, CA 2.0 0089168916 km 171325272016-04-2024 07:32 Kartta
3 km S of Maria Antonia, Puerto Rico 2.5 0084638463 km 171325243216-04-2024 07:27 Kartta
64 km SSW of Whites City, New Mexico 2.2 0088208820 km 171325036016-04-2024 06:52 Kartta
12 km NW of Pinnacles, CA 2.0 0087868786 km 171324986216-04-2024 06:44 Kartta
62 km SSW of Whites City, New Mexico 3.0 0088188818 km 171324919916-04-2024 06:33 Kartta
62 km S of Whites City, New Mexico 2.5 0088178817 km 171324911316-04-2024 06:31 Kartta
60 km WSW of Adak, Alaska 2.1 0073047304 km 171324805216-04-2024 06:14 Kartta
46 km WSW of Arica, Chile 4.2 01220412204 km 171324589116-04-2024 05:38 Kartta
59 km WSW of Adak, Alaska 2.0 0073017301 km 171324452116-04-2024 05:15 Kartta
59 km WSW of Adak, Alaska 2.3 0073017301 km 171324388416-04-2024 05:04 Kartta
59 km WSW of Adak, Alaska 2.1 0072997299 km 171324356116-04-2024 04:59 Kartta
2 km S of Indios, Puerto Rico 2.3 0084568456 km 171324040316-04-2024 04:06 Kartta
60 km SSW of Whites City, New Mexico 2.2 0088168816 km 171323990616-04-2024 03:58 Kartta
41 km E of Denali National Park, Alaska 2.1 0061716171 km 171323927816-04-2024 03:47 Kartta
2 km SE of Las Marías, Puerto Rico 2.6 0084398439 km 171323892016-04-2024 03:42 Kartta
71 km WSW of Pelabuhanratu, Indonesia 4.8 01013510135 km 171323750116-04-2024 03:18 Kartta
45 km W of Petrolia, CA 2.9 0084558455 km 171323692116-04-2024 03:08 Kartta
173 km N of Maubara, Timor Leste 4.9 01113711137 km 171323683416-04-2024 03:07 Kartta
49 km SSE of Nelchina, Alaska 2.3 0063786378 km 171323492916-04-2024 02:35 Kartta
51 km ESE of Pedro Bay, Alaska 2.0 0066186618 km 171323302616-04-2024 02:03 Kartta
Rat Islands, Aleutian Islands, Alaska 2.2 0072707270 km 171322294615-04-2024 23:15 Kartta
8 km N of Avenal, CA 2.4 0088168816 km 171322266215-04-2024 23:11 Kartta
143 km SE of Koshima, Japan 5.9 0079287928 km 171322073715-04-2024 22:38 Kartta
20 km ENE of Falls City, Texas 2.6 0088308830 km 171321824515-04-2024 21:57 Kartta
88 km ESE of Ugashik, Alaska 3.0 0068716871 km 171321733815-04-2024 21:42 Kartta
97 km NNE of Cruz Bay, U.S. Virgin Islands 3.4 0082218221 km 171321612615-04-2024 21:22 Kartta
38 km NW of Valdez, Alaska 2.5 0064066406 km 171321497715-04-2024 21:02 Kartta
99 km N of Cruz Bay, U.S. Virgin Islands 3.8 0082218221 km 171321467815-04-2024 20:57 Kartta
6 km S of Pāhala, Hawaii 2.0 01110711107 km 171321131315-04-2024 20:01 Kartta
18 km SW of Salcha, Alaska 2.5 0060666066 km 171320871915-04-2024 19:18 Kartta
17 km W of Karluk, Alaska 2.0 0068346834 km 171320858215-04-2024 19:16 Kartta
58 km ENE of Pedro Bay, Alaska 3.2 0065726572 km 171320840615-04-2024 19:13 Kartta
15 km SSE of Honaunau-Napoopoo, Hawaii 2.7 01108611086 km 171320723915-04-2024 18:53 Kartta
7 km SSE of Pāhala, Hawaii 2.0 01110811108 km 171320572315-04-2024 18:28 Kartta
41 km SW of Attu Station, Alaska 4.6 0070397039 km 171320502215-04-2024 18:17 Kartta
5 km S of Pāhala, Hawaii 3.2 01110711107 km 171320500415-04-2024 18:16 Kartta
57 km S of Whites City, New Mexico 2.2 0088108810 km 171320460115-04-2024 18:10 Kartta
33 km E of Miches, Dominican Republic 3.7 0084618461 km 171320333815-04-2024 17:48 Kartta
5 km S of Pāhala, Hawaii 2.8 01110711107 km 171319868815-04-2024 16:31 Kartta
106 km WNW of Yakutat, Alaska 2.1 0065196519 km 171319767515-04-2024 16:14 Kartta
18 km E of Julian, CA 2.0 0090429042 km 171319700815-04-2024 16:03 Kartta
89 km SSE of Kimbe, Papua New Guinea 4.5 01237912379 km 171319574615-04-2024 15:42 Kartta
19 km SW of Susitna, Alaska 2.5 0064086408 km 171319475015-04-2024 15:25 Kartta
101 km N of Cruz Bay, U.S. Virgin Islands 3.8 0082188218 km 171318596015-04-2024 12:59 Kartta
58 km S of Whites City, New Mexico 2.1 0088118811 km 171318564415-04-2024 12:54 Kartta
57 km S of Whites City, New Mexico 2.5 0088108810 km 171318456415-04-2024 12:36 Kartta
16 km ENE of Pāhala, Hawaii 2.3 01109611096 km 171318044215-04-2024 11:27 Kartta
86 km SW of Malisbeng, Philippines 4.2 0098599859 km 171317950115-04-2024 11:11 Kartta
106 km SSW of Kokopo, Papua New Guinea 5.4 01234112341 km 171317780715-04-2024 10:43 Kartta
16 km S of Leilani Estates, Hawaii 2.2 01108811088 km 171317677215-04-2024 10:26 Kartta
11 km NE of Pāhala, Hawaii 2.4 01109311093 km 171317403815-04-2024 09:40 Kartta
49 km SSE of Sand Point, Alaska 3.6 0071197119 km 171317356315-04-2024 09:32 Kartta
5 km NE of Mayagüez, Puerto Rico 2.5 0084468446 km 171317292115-04-2024 09:22 Kartta
69 km W of Petrolia, CA 3.0 0084638463 km 171317133615-04-2024 08:55 Kartta
293 km ENE of Lospalos, Timor Leste 4.3 01137211372 km 171316986215-04-2024 08:31 Kartta
227 km SE of Chiniak, Alaska 3.1 0069776977 km 171316720915-04-2024 07:46 Kartta
55 km W of Karluk, Alaska 2.0 0068266826 km 171316552415-04-2024 07:18 Kartta
75 km NNE of Cruz Bay, U.S. Virgin Islands 3.7 0082398239 km 171316452215-04-2024 07:02 Kartta
22 km NNE of Hawaiian Paradise Park, Hawaii 2.3 01103911039 km 171316345315-04-2024 06:44 Kartta
3 km NE of Pāhala, Hawaii 2.0 01109811098 km 171316265715-04-2024 06:30 Kartta
8 km SW of La Parguera, Puerto Rico 2.4 0084768476 km 171316191415-04-2024 06:18 Kartta
103 km SSE of Ierápetra, Greece 4.7 0029792979 km 171316118915-04-2024 06:06 Kartta
57 km SSE of Whites City, New Mexico 2.0 0088048804 km 171315842315-04-2024 05:20 Kartta
98 km NNE of Tocopilla, Chile 4.2 01241312413 km 171315735715-04-2024 05:02 Kartta
13 km ESE of Seldovia, Alaska 2.0 0066356635 km 171315661215-04-2024 04:50 Kartta
61 km S of Whites City, New Mexico 2.4 0088178817 km 171315165315-04-2024 03:27 Kartta
12 km SSW of Levan, Utah 2.3 0082408240 km 171315132815-04-2024 03:22 Kartta
47 km E of Fort Bidwell, California 2.0 0081788178 km 171315116715-04-2024 03:19 Kartta
3 km WSW of Indios, Puerto Rico 2.3 0084568456 km 171314958115-04-2024 02:53 Kartta
62 km S of Whites City, New Mexico 3.3 0088178817 km 171314422715-04-2024 01:23 Kartta
3 km SSE of Maria Antonia, Puerto Rico 2.3 0084628462 km 171313891114-04-2024 23:55 Kartta
27 km SSE of Fern Forest, Hawaii 2.2 01109911099 km 171313888014-04-2024 23:54 Kartta
92 km SSW of Masachapa, Nicaragua 4.7 01015910159 km 171313734514-04-2024 23:29 Kartta
40 km WSW of Adak, Alaska 2.5 0073147314 km 171313705314-04-2024 23:24 Kartta
5 km S of Pāhala, Hawaii 2.3 01110711107 km 171313455114-04-2024 22:42 Kartta
11 km E of Pāhala, Hawaii 2.1 01110011100 km 171312947814-04-2024 21:17 Kartta
15 km N of Snyder, Texas 2.9 0085618561 km 171312835814-04-2024 20:59 Kartta
110 km ESE of Kimbe, Papua New Guinea 6.5 01236212362 km 171312818814-04-2024 20:56 Kartta
101 km N of Charlotte Amalie, U.S. Virgin Islands 3.7 0082448244 km 171312470614-04-2024 19:58 Kartta
17 km SW of Westley, CA 2.9 0086998699 km 171312462314-04-2024 19:57 Kartta
106 km N of Charlotte Amalie, U.S. Virgin Islands 3.6 0082398239 km 171312380014-04-2024 19:43 Kartta
18 km SW of La Gomera, Guatemala 4.8 01007010070 km 171312209814-04-2024 19:14 Kartta
37 km ENE of Mole, China 4.9 0055945594 km 171311858714-04-2024 18:16 Kartta
7 km E of Port Hueneme, CA 2.0 0089978997 km 171311680114-04-2024 17:46 Kartta
5 km SSW of Guánica, Puerto Rico 2.6 0084668466 km 171311655514-04-2024 17:42 Kartta
Mariana Islands region 4.9 0094059405 km 171311635814-04-2024 17:39 Kartta
16 km SSW of Pa‘auilo, Hawaii 2.0 01102211022 km 171311444814-04-2024 17:07 Kartta
4 km SE of Pecos, Texas 2.1 0088048804 km 171311436614-04-2024 17:06 Kartta
11 km ENE of Pāhala, Hawaii 2.3 01109811098 km 171311321014-04-2024 16:46 Kartta
7 km ENE of Pāhala, Hawaii 2.3 01109711097 km 171311284614-04-2024 16:40 Kartta
59 km WSW of Adak, Alaska 2.2 0073027302 km 171311192514-04-2024 16:25 Kartta
59 km WSW of Adak, Alaska 2.1 0073037303 km 171311065514-04-2024 16:04 Kartta
4 km N of Frazier Park, CA 2.0 0089168916 km 171310639014-04-2024 14:53 Kartta
46 km SW of Nikolski, Alaska 2.4 0072997299 km 171310325014-04-2024 14:00 Kartta
116 km SSE of Kyzyl-Suu, Kyrgyzstan 4.6 0040684068 km 171310266114-04-2024 13:51 Kartta
30 km W of Olancha, CA 2.0 0087478747 km 171310265214-04-2024 13:50 Kartta
9 km NE of Pāhala, Hawaii 2.1 01109511095 km 171310171814-04-2024 13:35 Kartta
Rat Islands, Aleutian Islands, Alaska 3.5 0072747274 km 171310004214-04-2024 13:07 Kartta
28 km E of Primo Tapia, B.C., MX 2.6 0091409140 km 171309683614-04-2024 12:13 Kartta

465 earthquakes found. Click on location or map links for more details from the USGS


kartta ja tietoa kohteliaisuus Yhdysvallat Geological Survey

Alkuperäinen skripti  Saratoga-weather.org Sovitettu myös templatelle  Weerstation Leuven (version 3.21)